sensor_id;sensor_type;location;lat;lon;timestamp;pressure;altitude;pressure_sealevel;temperature;humidity
75420;BME280;63998;52.488;13.428;2023-08-06T00:00:44;100326.81;;;18.23;72.64
75420;BME280;63998;52.488;13.428;2023-08-06T00:03:10;100331.25;;;18.21;72.46
75420;BME280;63998;52.488;13.428;2023-08-06T00:05:35;100322.47;;;18.22;72.54
75420;BME280;63998;52.488;13.428;2023-08-06T00:08:01;100328.16;;;18.10;73.42
75420;BME280;63998;52.488;13.428;2023-08-06T00:10:26;100336.75;;;18.15;73.38
75420;BME280;63998;52.488;13.428;2023-08-06T00:12:51;100326.28;;;18.14;73.71
75420;BME280;63998;52.488;13.428;2023-08-06T00:15:17;100336.75;;;18.15;73.58
75420;BME280;63998;52.488;13.428;2023-08-06T00:17:42;100322.91;;;18.10;74.03
75420;BME280;63998;52.488;13.428;2023-08-06T00:20:08;100317.63;;;18.10;73.68
75420;BME280;63998;52.488;13.428;2023-08-06T00:22:37;100314.19;;;18.08;74.29
75420;BME280;63998;52.488;13.428;2023-08-06T00:25:04;100310.91;;;18.03;74.48
75420;BME280;63998;52.488;13.428;2023-08-06T00:27:29;100311.69;;;18.05;74.00
75420;BME280;63998;52.488;13.428;2023-08-06T00:29:55;100306.41;;;18.05;74.39
75420;BME280;63998;52.488;13.428;2023-08-06T00:32:20;100301.00;;;18.10;73.80
75420;BME280;63998;52.488;13.428;2023-08-06T00:34:46;100304.78;;;18.03;74.62
75420;BME280;63998;52.488;13.428;2023-08-06T00:37:11;100310.09;;;18.01;74.65
75420;BME280;63998;52.488;13.428;2023-08-06T00:39:36;100298.78;;;17.99;74.87
75420;BME280;63998;52.488;13.428;2023-08-06T00:42:02;100297.00;;;18.00;74.89
75420;BME280;63998;52.488;13.428;2023-08-06T00:44:27;100295.22;;;18.00;74.75
75420;BME280;63998;52.488;13.428;2023-08-06T00:46:53;100296.25;;;17.96;75.13
75420;BME280;63998;52.488;13.428;2023-08-06T00:49:18;100300.91;;;17.88;75.44
75420;BME280;63998;52.488;13.428;2023-08-06T00:51:45;100293.84;;;17.90;75.20
75420;BME280;63998;52.488;13.428;2023-08-06T00:54:10;100303.75;;;17.82;76.00
75420;BME280;63998;52.488;13.428;2023-08-06T00:56:36;100295.91;;;17.80;76.20
75420;BME280;63998;52.488;13.428;2023-08-06T00:59:05;100301.13;;;17.82;76.17
75420;BME280;63998;52.488;13.428;2023-08-06T01:01:31;100294.31;;;17.76;76.09
75420;BME280;63998;52.488;13.428;2023-08-06T01:03:57;100298.53;;;17.80;76.15
75420;BME280;63998;52.488;13.428;2023-08-06T01:14:31;100285.25;;;17.85;76.23
75420;BME280;63998;52.488;13.428;2023-08-06T01:16:58;100294.97;;;17.83;76.34
75420;BME280;63998;52.488;13.428;2023-08-06T01:19:24;100288.88;;;17.81;76.30
75420;BME280;63998;52.488;13.428;2023-08-06T01:21:49;100283.63;;;17.81;76.62
75420;BME280;63998;52.488;13.428;2023-08-06T01:24:15;100280.09;;;17.82;76.17
75420;BME280;63998;52.488;13.428;2023-08-06T01:26:51;100284.44;;;17.83;76.24
75420;BME280;63998;52.488;13.428;2023-08-06T01:29:27;100269.59;;;17.82;76.19
75420;BME280;63998;52.488;13.428;2023-08-06T01:31:54;100269.50;;;17.85;75.93
75420;BME280;63998;52.488;13.428;2023-08-06T01:34:23;100267.66;;;17.87;75.74
75420;BME280;63998;52.488;13.428;2023-08-06T01:36:50;100258.97;;;17.85;75.70
75420;BME280;63998;52.488;13.428;2023-08-06T01:39:16;100259.88;;;17.84;76.43
75420;BME280;63998;52.488;13.428;2023-08-06T01:41:41;100252.09;;;17.81;75.96
75420;BME280;63998;52.488;13.428;2023-08-06T01:44:06;100246.97;;;17.78;76.36
75420;BME280;63998;52.488;13.428;2023-08-06T01:46:32;100248.16;;;17.69;76.76
75420;BME280;63998;52.488;13.428;2023-08-06T01:48:57;100244.56;;;17.72;76.79
75420;BME280;63998;52.488;13.428;2023-08-06T01:51:22;100244.47;;;17.75;76.85
75420;BME280;63998;52.488;13.428;2023-08-06T01:53:48;100245.47;;;17.71;76.85
75420;BME280;63998;52.488;13.428;2023-08-06T01:56:13;100239.59;;;17.64;77.17
75420;BME280;63998;52.488;13.428;2023-08-06T01:58:39;100242.56;;;17.53;78.00
75420;BME280;63998;52.488;13.428;2023-08-06T02:01:04;100233.88;;;17.51;77.89
75420;BME280;63998;52.488;13.428;2023-08-06T02:03:29;100232.78;;;17.57;77.54
75420;BME280;63998;52.488;13.428;2023-08-06T02:05:55;100237.06;;;17.59;77.90
75420;BME280;63998;52.488;13.428;2023-08-06T02:08:20;100230.88;;;17.62;77.82
75420;BME280;63998;52.488;13.428;2023-08-06T02:10:45;100224.69;;;17.65;77.39
75420;BME280;63998;52.488;13.428;2023-08-06T02:13:11;100223.59;;;17.70;77.44
75420;BME280;63998;52.488;13.428;2023-08-06T02:15:42;100228.13;;;17.67;77.35
75420;BME280;63998;52.488;13.428;2023-08-06T02:18:07;100224.75;;;17.62;77.91
75420;BME280;63998;52.488;13.428;2023-08-06T02:20:32;100227.38;;;17.63;77.80
75420;BME280;63998;52.488;13.428;2023-08-06T02:22:58;100227.38;;;17.63;77.66
75420;BME280;63998;52.488;13.428;2023-08-06T02:25:24;100214.19;;;17.65;77.48
75420;BME280;63998;52.488;13.428;2023-08-06T02:27:49;100220.97;;;17.70;77.19
75420;BME280;63998;52.488;13.428;2023-08-06T02:30:14;100213.22;;;17.67;77.62
75420;BME280;63998;52.488;13.428;2023-08-06T02:32:40;100217.63;;;17.67;77.17
75420;BME280;63998;52.488;13.428;2023-08-06T02:35:05;100205.25;;;17.69;76.96
75420;BME280;63998;52.488;13.428;2023-08-06T02:37:33;100207.09;;;17.67;77.00
75420;BME280;63998;52.488;13.428;2023-08-06T02:39:59;100197.63;;;17.61;77.54
75420;BME280;63998;52.488;13.428;2023-08-06T02:42:24;100205.47;;;17.63;77.36
75420;BME280;63998;52.488;13.428;2023-08-06T02:44:52;100202.84;;;17.63;77.51
75420;BME280;63998;52.488;13.428;2023-08-06T02:47:17;100198.59;;;17.58;77.14
75420;BME280;63998;52.488;13.428;2023-08-06T02:49:43;100191.84;;;17.51;77.87
75420;BME280;63998;52.488;13.428;2023-08-06T02:52:08;100196.50;;;17.43;78.08
75420;BME280;63998;52.488;13.428;2023-08-06T02:54:34;100188.75;;;17.40;78.04
75420;BME280;63998;52.488;13.428;2023-08-06T02:56:59;100189.03;;;17.31;78.21
75420;BME280;63998;52.488;13.428;2023-08-06T02:59:24;100182.41;;;17.21;78.57
75420;BME280;63998;52.488;13.428;2023-08-06T03:01:50;100186.91;;;17.17;78.49
75420;BME280;63998;52.488;13.428;2023-08-06T03:04:15;100192.41;;;17.10;78.87
75420;BME280;63998;52.488;13.428;2023-08-06T03:06:42;100198.47;;;17.12;79.24
75420;BME280;63998;52.488;13.428;2023-08-06T03:09:08;100191.59;;;17.08;79.36
75420;BME280;63998;52.488;13.428;2023-08-06T03:11:33;100192.41;;;17.10;79.00
75420;BME280;63998;52.488;13.428;2023-08-06T03:13:58;100186.16;;;17.14;78.83
75420;BME280;63998;52.488;13.428;2023-08-06T03:16:24;100186.91;;;17.17;78.85
75420;BME280;63998;52.488;13.428;2023-08-06T03:18:49;100187.88;;;17.15;78.46
75420;BME280;63998;52.488;13.428;2023-08-06T03:21:14;100186.25;;;17.11;79.10
75420;BME280;63998;52.488;13.428;2023-08-06T03:23:40;100184.63;;;17.07;79.21
75420;BME280;63998;52.488;13.428;2023-08-06T03:26:05;100169.06;;;17.02;79.53
75420;BME280;63998;52.488;13.428;2023-08-06T03:28:30;100171.81;;;16.98;79.25
75420;BME280;63998;52.488;13.428;2023-08-06T03:31:02;100161.38;;;16.96;79.68
75420;BME280;63998;52.488;13.428;2023-08-06T03:33:28;100160.66;;;16.93;79.79
75420;BME280;63998;52.488;13.428;2023-08-06T03:35:53;100149.38;;;16.89;79.71
75420;BME280;63998;52.488;13.428;2023-08-06T03:38:18;100148.44;;;16.92;79.81
75420;BME280;63998;52.488;13.428;2023-08-06T03:40:44;100152.06;;;16.87;79.90
75420;BME280;63998;52.488;13.428;2023-08-06T03:43:09;100144.03;;;16.92;79.89
75420;BME280;63998;52.488;13.428;2023-08-06T03:45:34;100143.06;;;16.95;79.95
75420;BME280;63998;52.488;13.428;2023-08-06T03:48:00;100150.06;;;16.94;79.77
75420;BME280;63998;52.488;13.428;2023-08-06T03:50:25;100135.13;;;16.96;80.06
75420;BME280;63998;52.488;13.428;2023-08-06T03:52:50;100127.22;;;16.98;79.37
75420;BME280;63998;52.488;13.428;2023-08-06T03:55:16;100125.63;;;16.94;79.94
75420;BME280;63998;52.488;13.428;2023-08-06T03:57:41;100125.72;;;16.91;80.27
75420;BME280;63998;52.488;13.428;2023-08-06T04:00:07;100132.69;;;16.92;80.18
75420;BME280;63998;52.488;13.428;2023-08-06T04:02:32;100124.97;;;16.87;79.94
75420;BME280;63998;52.488;13.428;2023-08-06T04:04:58;100120.47;;;16.91;80.09
75420;BME280;63998;52.488;13.428;2023-08-06T04:07:24;100118.84;;;16.86;80.34
75420;BME280;63998;52.488;13.428;2023-08-06T04:10:03;100112.75;;;16.86;80.43
75420;BME280;63998;52.488;13.428;2023-08-06T04:12:30;100113.63;;;16.86;80.49
75420;BME280;63998;52.488;13.428;2023-08-06T04:14:57;100110.19;;;16.84;80.53
75420;BME280;63998;52.488;13.428;2023-08-06T04:17:22;100110.28;;;16.81;80.65
75420;BME280;63998;52.488;13.428;2023-08-06T04:19:53;100105.34;;;16.72;81.13
75420;BME280;63998;52.488;13.428;2023-08-06T04:22:19;100107.38;;;16.64;81.64
75420;BME280;63998;52.488;13.428;2023-08-06T04:24:44;100107.38;;;16.64;81.85
75420;BME280;63998;52.488;13.428;2023-08-06T04:27:10;100105.56;;;16.66;82.12
75420;BME280;63998;52.488;13.428;2023-08-06T04:29:36;100103.84;;;16.65;82.20
75420;BME280;63998;52.488;13.428;2023-08-06T04:32:05;100093.44;;;16.62;82.38
75420;BME280;63998;52.488;13.428;2023-08-06T04:34:30;100086.41;;;16.64;81.92
75420;BME280;63998;52.488;13.428;2023-08-06T04:36:55;100090.56;;;16.70;82.34
75420;BME280;63998;52.488;13.428;2023-08-06T04:39:21;100084.38;;;16.72;82.42
75420;BME280;63998;52.488;13.428;2023-08-06T04:41:46;100079.13;;;16.72;81.96
75420;BME280;63998;52.488;13.428;2023-08-06T04:44:11;100072.28;;;16.68;82.10
75420;BME280;63998;52.488;13.428;2023-08-06T04:46:37;100075.16;;;16.59;82.21
75420;BME280;63998;52.488;13.428;2023-08-06T04:49:02;100066.34;;;16.62;82.13
75420;BME280;63998;52.488;13.428;2023-08-06T04:51:27;100061.97;;;16.62;82.10
75420;BME280;63998;52.488;13.428;2023-08-06T04:53:53;100066.19;;;16.68;82.30
75420;BME280;63998;52.488;13.428;2023-08-06T04:56:18;100064.50;;;16.65;82.04
75420;BME280;63998;52.488;13.428;2023-08-06T04:58:43;100064.16;;;16.48;82.53
75420;BME280;63998;52.488;13.428;2023-08-06T05:01:09;100065.97;;;16.46;82.99
75420;BME280;63998;52.488;13.428;2023-08-06T05:03:34;100063.31;;;16.47;83.49
75420;BME280;63998;52.488;13.428;2023-08-06T05:05:59;100058.78;;;16.52;83.02
75420;BME280;63998;52.488;13.428;2023-08-06T05:08:25;100061.38;;;16.54;82.86
75420;BME280;63998;52.488;13.428;2023-08-06T05:10:50;100058.84;;;16.51;82.92
75420;BME280;63998;52.488;13.428;2023-08-06T05:13:15;100061.50;;;16.49;83.31
75420;BME280;63998;52.488;13.428;2023-08-06T05:15:42;100060.66;;;16.49;82.80
75420;BME280;63998;52.488;13.428;2023-08-06T05:18:10;100058.84;;;16.51;83.29
75420;BME280;63998;52.488;13.428;2023-08-06T05:20:37;100048.25;;;16.54;83.11
75420;BME280;63998;52.488;13.428;2023-08-06T05:23:03;100041.28;;;16.53;83.06
75420;BME280;63998;52.488;13.428;2023-08-06T05:25:29;100041.38;;;16.50;82.87
75420;BME280;63998;52.488;13.428;2023-08-06T05:27:55;100038.88;;;16.47;82.79
75420;BME280;63998;52.488;13.428;2023-08-06T05:30:20;100037.75;;;16.54;82.57
75420;BME280;63998;52.488;13.428;2023-08-06T05:32:45;100033.75;;;16.44;82.28
75420;BME280;63998;52.488;13.428;2023-08-06T05:35:10;100037.97;;;16.48;82.18
75420;BME280;63998;52.488;13.428;2023-08-06T05:37:36;100029.09;;;16.52;82.41
75420;BME280;63998;52.488;13.428;2023-08-06T05:40:01;100025.66;;;16.50;81.85
75420;BME280;63998;52.488;13.428;2023-08-06T05:42:28;100026.38;;;16.55;82.31
75420;BME280;63998;52.488;13.428;2023-08-06T05:44:53;100039.34;;;16.58;82.17
75420;BME280;63998;52.488;13.428;2023-08-06T05:47:18;100034.19;;;16.57;81.92
75420;BME280;63998;52.488;13.428;2023-08-06T05:49:45;100033.38;;;16.55;82.39
75420;BME280;63998;52.488;13.428;2023-08-06T05:52:10;100036.63;;;16.61;82.17
75420;BME280;63998;52.488;13.428;2023-08-06T05:54:35;100026.66;;;16.72;81.30
75420;BME280;63998;52.488;13.428;2023-08-06T05:57:01;100032.28;;;16.86;81.95
75420;BME280;63998;52.488;13.428;2023-08-06T05:59:26;100028.56;;;16.94;81.31
75420;BME280;63998;52.488;13.428;2023-08-06T06:01:51;100029.94;;;17.04;81.71
75420;BME280;63998;52.488;13.428;2023-08-06T06:04:17;100018.63;;;17.02;81.22
75420;BME280;63998;52.488;13.428;2023-08-06T06:06:42;100030.50;;;17.12;81.56
75420;BME280;63998;52.488;13.428;2023-08-06T06:09:07;100014.41;;;17.21;81.27
75420;BME280;63998;52.488;13.428;2023-08-06T06:11:33;100018.53;;;17.28;81.35
75420;BME280;63998;52.488;13.428;2023-08-06T06:13:58;100020.94;;;17.34;80.50
75420;BME280;63998;52.488;13.428;2023-08-06T06:16:23;100011.94;;;17.41;80.25
75420;BME280;63998;52.488;13.428;2023-08-06T06:18:48;100015.09;;;17.49;80.19
75420;BME280;63998;52.488;13.428;2023-08-06T06:21:14;100014.88;;;17.55;79.90
75420;BME280;63998;52.488;13.428;2023-08-06T06:23:39;100005.91;;;17.61;79.82
75420;BME280;63998;52.488;13.428;2023-08-06T06:26:05;100011.03;;;17.66;79.37
75420;BME280;63998;52.488;13.428;2023-08-06T06:28:30;100009.06;;;17.71;79.41
75420;BME280;63998;52.488;13.428;2023-08-06T06:31:03;100012.38;;;17.76;79.04
75420;BME280;63998;52.488;13.428;2023-08-06T06:33:28;100006.09;;;17.80;79.11
75420;BME280;63998;52.488;13.428;2023-08-06T06:35:54;100001.50;;;17.85;78.33
75420;BME280;63998;52.488;13.428;2023-08-06T06:38:19;100001.97;;;17.73;78.27
75420;BME280;63998;52.488;13.428;2023-08-06T06:40:53;99994.03;;;17.74;78.43
75420;BME280;63998;52.488;13.428;2023-08-06T06:43:18;99999.88;;;17.81;78.78
75420;BME280;63998;52.488;13.428;2023-08-06T06:45:44;99989.25;;;17.84;77.94
75420;BME280;63998;52.488;13.428;2023-08-06T06:48:09;99993.38;;;17.91;77.70
75420;BME280;63998;52.488;13.428;2023-08-06T06:50:35;99986.94;;;17.98;77.58
75420;BME280;63998;52.488;13.428;2023-08-06T06:53:01;99986.72;;;18.04;77.39
75420;BME280;63998;52.488;13.428;2023-08-06T06:55:26;99987.41;;;18.08;77.59
75420;BME280;63998;52.488;13.428;2023-08-06T06:57:51;99994.38;;;18.09;77.35
75420;BME280;63998;52.488;13.428;2023-08-06T07:00:17;99989.81;;;18.14;78.00
75420;BME280;63998;52.488;13.428;2023-08-06T07:02:42;99995.38;;;18.06;77.19
75420;BME280;63998;52.488;13.428;2023-08-06T07:05:07;99997.88;;;18.09;76.97
75420;BME280;63998;52.488;13.428;2023-08-06T07:07:34;100002.84;;;18.17;77.71
75420;BME280;63998;52.488;13.428;2023-08-06T07:10:01;99995.00;;;18.15;77.37
75420;BME280;63998;52.488;13.428;2023-08-06T07:12:26;100001.72;;;18.22;77.28
75420;BME280;63998;52.488;13.428;2023-08-06T07:14:51;99996.47;;;18.22;77.05
75420;BME280;63998;52.488;13.428;2023-08-06T07:17:17;100002.63;;;18.21;77.73
75420;BME280;63998;52.488;13.428;2023-08-06T07:19:42;100000.13;;;18.18;77.75
75420;BME280;63998;52.488;13.428;2023-08-06T07:22:07;100000.13;;;18.18;77.68
75420;BME280;63998;52.488;13.428;2023-08-06T07:24:33;100000.38;;;18.12;77.58
75420;BME280;63998;52.488;13.428;2023-08-06T07:26:58;100004.81;;;17.90;78.77
75420;BME280;63998;52.488;13.428;2023-08-06T07:29:23;100003.53;;;17.78;79.62
75420;BME280;63998;52.488;13.428;2023-08-06T07:31:49;100004.97;;;17.64;79.73
75420;BME280;63998;52.488;13.428;2023-08-06T07:34:15;99999.97;;;17.56;80.59
75420;BME280;63998;52.488;13.428;2023-08-06T07:36:44;100002.28;;;17.42;81.19
75420;BME280;63998;52.488;13.428;2023-08-06T07:39:09;100003.47;;;17.33;81.40
75420;BME280;63998;52.488;13.428;2023-08-06T07:41:35;99995.81;;;17.04;81.26
75420;BME280;63998;52.488;13.428;2023-08-06T07:44:00;99993.19;;;16.80;82.15
75420;BME280;63998;52.488;13.428;2023-08-06T07:46:26;99995.81;;;16.80;83.19
75420;BME280;63998;52.488;13.428;2023-08-06T07:48:51;100003.88;;;16.74;83.63
75420;BME280;63998;52.488;13.428;2023-08-06T07:51:16;99992.63;;;16.71;83.10
75420;BME280;63998;52.488;13.428;2023-08-06T07:53:42;100006.50;;;16.74;83.37
75420;BME280;63998;52.488;13.428;2023-08-06T07:56:07;100002.91;;;16.77;83.11
75420;BME280;63998;52.488;13.428;2023-08-06T07:58:32;99992.53;;;16.74;83.33
75420;BME280;63998;52.488;13.428;2023-08-06T08:00:58;99992.25;;;16.81;82.69
75420;BME280;63998;52.488;13.428;2023-08-06T08:03:23;99997.34;;;16.86;82.82
75420;BME280;63998;52.488;13.428;2023-08-06T08:05:48;99991.75;;;16.95;82.60
75420;BME280;63998;52.488;13.428;2023-08-06T08:08:14;100001.19;;;17.01;82.03
75420;BME280;63998;52.488;13.428;2023-08-06T08:10:39;99990.72;;;16.99;81.55
75420;BME280;63998;52.488;13.428;2023-08-06T08:13:05;99991.38;;;17.06;82.08
75420;BME280;63998;52.488;13.428;2023-08-06T08:15:31;99988.53;;;17.12;82.11
75420;BME280;63998;52.488;13.428;2023-08-06T08:17:57;99979.50;;;17.19;82.50
75420;BME280;63998;52.488;13.428;2023-08-06T08:20:23;99983.16;;;17.15;83.04
75420;BME280;63998;52.488;13.428;2023-08-06T08:22:49;99979.63;;;17.16;82.50
75420;BME280;63998;52.488;13.428;2023-08-06T08:25:15;99982.06;;;17.20;82.70
75420;BME280;63998;52.488;13.428;2023-08-06T08:27:41;99977.16;;;17.11;82.85
75420;BME280;63998;52.488;13.428;2023-08-06T08:30:07;99969.13;;;17.16;83.13
75420;BME280;63998;52.488;13.428;2023-08-06T08:32:32;99967.88;;;17.03;82.51
75420;BME280;63998;52.488;13.428;2023-08-06T08:34:57;99961.72;;;17.04;83.31
75420;BME280;63998;52.488;13.428;2023-08-06T08:37:23;99961.13;;;17.19;82.76
75420;BME280;63998;52.488;13.428;2023-08-06T08:39:49;99957.81;;;17.37;82.39
75420;BME280;63998;52.488;13.428;2023-08-06T08:42:15;99957.44;;;17.46;81.71
75420;BME280;63998;52.488;13.428;2023-08-06T08:44:42;99952.31;;;17.43;81.61
75420;BME280;63998;52.488;13.428;2023-08-06T08:47:07;99949.03;;;17.38;82.53
75420;BME280;63998;52.488;13.428;2023-08-06T08:49:35;99951.66;;;17.38;82.30
75420;BME280;63998;52.488;13.428;2023-08-06T08:52:02;99948.78;;;17.44;82.66
75420;BME280;63998;52.488;13.428;2023-08-06T08:54:28;99943.97;;;17.55;82.66
75420;BME280;63998;52.488;13.428;2023-08-06T08:56:56;99929.69;;;17.63;81.81
75420;BME280;63998;52.488;13.428;2023-08-06T08:59:22;99933.56;;;17.76;81.46
75420;BME280;63998;52.488;13.428;2023-08-06T09:01:48;99937.53;;;17.86;80.79
75420;BME280;63998;52.488;13.428;2023-08-06T09:04:17;99930.97;;;17.96;80.20
75420;BME280;63998;52.488;13.428;2023-08-06T09:06:42;99918.22;;;18.07;80.34
75420;BME280;63998;52.488;13.428;2023-08-06T09:09:12;99919.56;;;18.17;80.19
75420;BME280;63998;52.488;13.428;2023-08-06T09:11:44;99906.88;;;18.27;80.30
75420;BME280;63998;52.488;13.428;2023-08-06T09:14:11;99913.78;;;18.29;79.38
75420;BME280;63998;52.488;13.428;2023-08-06T09:16:37;99909.97;;;18.37;79.20
75420;BME280;63998;52.488;13.428;2023-08-06T09:19:09;99908.25;;;18.36;80.25
75420;BME280;63998;52.488;13.428;2023-08-06T09:21:39;99907.84;;;18.45;79.52
75420;BME280;63998;52.488;13.428;2023-08-06T09:24:12;99908.81;;;18.42;78.79
75420;BME280;63998;52.488;13.428;2023-08-06T09:26:38;99902.81;;;18.40;78.33
75420;BME280;63998;52.488;13.428;2023-08-06T09:29:08;99899.44;;;18.37;78.31
75420;BME280;63998;52.488;13.428;2023-08-06T09:31:48;99897.63;;;18.39;78.52
75420;BME280;63998;52.488;13.428;2023-08-06T09:34:23;99891.38;;;18.41;78.55
75420;BME280;63998;52.488;13.428;2023-08-06T09:36:49;99888.81;;;18.40;78.38
75420;BME280;63998;52.488;13.428;2023-08-06T09:39:20;99891.28;;;18.43;78.81
75420;BME280;63998;52.488;13.428;2023-08-06T09:41:46;99888.53;;;18.46;78.53
75420;BME280;63998;52.488;13.428;2023-08-06T09:44:17;99885.09;;;18.44;78.43
75420;BME280;63998;52.488;13.428;2023-08-06T09:46:50;99877.75;;;18.52;78.75
75420;BME280;63998;52.488;13.428;2023-08-06T09:49:17;99870.66;;;18.54;78.20
75420;BME280;63998;52.488;13.428;2023-08-06T09:51:43;99875.31;;;18.47;78.32
75420;BME280;63998;52.488;13.428;2023-08-06T09:54:12;99872.75;;;18.46;77.89
75420;BME280;63998;52.488;13.428;2023-08-06T09:56:37;99874.59;;;18.44;77.74
75420;BME280;63998;52.488;13.428;2023-08-06T09:59:05;99872.88;;;18.43;77.37
75420;BME280;63998;52.488;13.428;2023-08-06T10:01:35;99872.75;;;18.46;77.50
75420;BME280;63998;52.488;13.428;2023-08-06T10:04:05;99866.44;;;18.50;77.72
75420;BME280;63998;52.488;13.428;2023-08-06T10:06:36;99861.97;;;18.52;77.69
75420;BME280;63998;52.488;13.428;2023-08-06T10:09:03;99866.69;;;18.44;78.13
75420;BME280;63998;52.488;13.428;2023-08-06T10:11:29;99862.22;;;18.46;78.88
75420;BME280;63998;52.488;13.428;2023-08-06T10:14:11;99859.81;;;18.41;78.76
75420;BME280;63998;52.488;13.428;2023-08-06T10:16:38;99858.88;;;18.42;78.34
75420;BME280;63998;52.488;13.428;2023-08-06T10:19:05;99851.84;;;18.43;78.45
75420;BME280;63998;52.488;13.428;2023-08-06T10:21:32;99851.69;;;18.46;78.91
75420;BME280;63998;52.488;13.428;2023-08-06T10:23:57;99842.31;;;18.40;78.94
75420;BME280;63998;52.488;13.428;2023-08-06T10:26:29;99853.84;;;18.38;78.85
75420;BME280;63998;52.488;13.428;2023-08-06T10:28:55;99851.69;;;18.27;79.23
75420;BME280;63998;52.488;13.428;2023-08-06T10:31:53;99850.03;;;18.24;79.14
75420;BME280;63998;52.488;13.428;2023-08-06T10:34:18;99849.91;;;18.27;79.87
75420;BME280;63998;52.488;13.428;2023-08-06T10:36:44;99843.06;;;18.23;80.04
75420;BME280;63998;52.488;13.428;2023-08-06T10:39:13;99847.41;;;18.24;79.68
75420;BME280;63998;52.488;13.428;2023-08-06T10:41:42;99844.09;;;18.19;79.98
75420;BME280;63998;52.488;13.428;2023-08-06T10:44:08;99843.97;;;18.22;78.97
75420;BME280;63998;52.488;13.428;2023-08-06T10:46:34;99845.69;;;18.23;78.01
75420;BME280;63998;52.488;13.428;2023-08-06T10:48:59;99842.28;;;18.21;78.79
75420;BME280;63998;52.488;13.428;2023-08-06T10:51:25;99838.00;;;18.19;77.64
75420;BME280;63998;52.488;13.428;2023-08-06T10:53:51;99835.31;;;18.20;79.28
75420;BME280;63998;52.488;13.428;2023-08-06T10:56:18;99838.84;;;18.19;79.20
75420;BME280;63998;52.488;13.428;2023-08-06T10:58:45;99836.16;;;18.21;76.83
75420;BME280;63998;52.488;13.428;2023-08-06T11:01:10;99828.94;;;18.26;77.14
75420;BME280;63998;52.488;13.428;2023-08-06T11:03:37;99822.53;;;18.31;76.29
75420;BME280;63998;52.488;13.428;2023-08-06T11:06:03;99821.97;;;18.44;76.55
75420;BME280;63998;52.488;13.428;2023-08-06T11:08:32;99824.56;;;18.45;75.97
75420;BME280;63998;52.488;13.428;2023-08-06T11:11:11;99822.84;;;18.44;75.61
75420;BME280;63998;52.488;13.428;2023-08-06T11:13:44;99820.69;;;18.54;76.33
75420;BME280;63998;52.488;13.428;2023-08-06T11:16:12;99819.50;;;18.61;76.41
75420;BME280;63998;52.488;13.428;2023-08-06T11:18:39;99803.41;;;18.67;76.73
75420;BME280;63998;52.488;13.428;2023-08-06T11:21:05;99807.28;;;18.79;76.94
75420;BME280;63998;52.488;13.428;2023-08-06T11:23:30;99812.38;;;18.82;75.60
75420;BME280;63998;52.488;13.428;2023-08-06T11:25:57;99810.31;;;18.88;75.27
75420;BME280;63998;52.488;13.428;2023-08-06T11:28:22;99797.66;;;18.96;75.27
75420;BME280;63998;52.488;13.428;2023-08-06T11:30:51;99794.56;;;19.06;75.57
75420;BME280;63998;52.488;13.428;2023-08-06T11:33:23;99791.19;;;19.04;74.76
75420;BME280;63998;52.488;13.428;2023-08-06T11:35:51;99794.88;;;18.99;73.71
75420;BME280;63998;52.488;13.428;2023-08-06T11:38:16;99783.78;;;18.93;72.23
75420;BME280;63998;52.488;13.428;2023-08-06T11:40:44;99781.38;;;18.88;71.37
75420;BME280;63998;52.488;13.428;2023-08-06T11:43:10;99782.56;;;18.81;73.44
75420;BME280;63998;52.488;13.428;2023-08-06T11:45:35;99781.97;;;18.76;74.66
75420;BME280;63998;52.488;13.428;2023-08-06T11:48:01;99774.53;;;18.84;75.60
75420;BME280;63998;52.488;13.428;2023-08-06T11:50:27;99778.41;;;18.77;75.08
75420;BME280;63998;52.488;13.428;2023-08-06T11:52:56;99764.59;;;18.72;74.24
75420;BME280;63998;52.488;13.428;2023-08-06T11:55:24;99766.44;;;18.70;74.39
75420;BME280;63998;52.488;13.428;2023-08-06T11:57:49;99761.03;;;18.73;75.28
75420;BME280;63998;52.488;13.428;2023-08-06T12:00:15;99768.94;;;18.73;75.53
75420;BME280;63998;52.488;13.428;2023-08-06T12:02:43;99763.19;;;18.65;74.52
75420;BME280;63998;52.488;13.428;2023-08-06T12:05:13;99759.78;;;18.63;74.67
75420;BME280;63998;52.488;13.428;2023-08-06T12:07:43;99760.75;;;18.60;74.95
75420;BME280;63998;52.488;13.428;2023-08-06T12:10:09;99759.78;;;18.63;74.37
75420;BME280;63998;52.488;13.428;2023-08-06T12:12:35;99763.03;;;18.68;75.06
75420;BME280;63998;52.488;13.428;2023-08-06T12:15:01;99761.50;;;18.64;76.15
75420;BME280;63998;52.488;13.428;2023-08-06T12:17:27;99748.94;;;18.69;75.90
75420;BME280;63998;52.488;13.428;2023-08-06T12:19:52;99749.75;;;18.71;75.88
75420;BME280;63998;52.488;13.428;2023-08-06T12:22:18;99754.38;;;18.66;75.72
75420;BME280;63998;52.488;13.428;2023-08-06T12:24:45;99752.88;;;18.60;76.05
75420;BME280;63998;52.488;13.428;2023-08-06T12:27:11;99754.91;;;18.54;77.16
75420;BME280;63998;52.488;13.428;2023-08-06T12:29:40;99760.59;;;18.26;78.13
75420;BME280;63998;52.488;13.428;2023-08-06T12:32:06;99764.25;;;18.22;78.40
75420;BME280;63998;52.488;13.428;2023-08-06T12:34:31;99753.31;;;18.12;78.85
75420;BME280;63998;52.488;13.428;2023-08-06T12:36:57;99754.41;;;17.88;79.90
75420;BME280;63998;52.488;13.428;2023-08-06T12:39:22;99763.31;;;17.84;80.56
75420;BME280;63998;52.488;13.428;2023-08-06T12:41:47;99753.22;;;17.75;81.37
75420;BME280;63998;52.488;13.428;2023-08-06T12:44:14;99753.09;;;17.78;81.76
75420;BME280;63998;52.488;13.428;2023-08-06T12:46:39;99760.19;;;17.76;82.08
75420;BME280;63998;52.488;13.428;2023-08-06T12:49:04;99750.56;;;17.54;82.74